Time;durP1;ratioP1;P1;durP2;ratioP2;P2;SDS_P1;SDS_P2;PMS_P1;PMS_P2;Temp;Humidity;BMP_temperature;BMP_pressure;BME280_temperature;BME280_humidity;BME280_pressure;Samples;Min_cycle;Max_cycle;Signal;HPM_P1;HPM_P2
2022/09/11 00:00:51;;;;;;;81.13;46.83;;;14.20;99.90;;;;;;7392690;19;20018;-84
2022/09/11 00:03:23;;;;;;;73.03;45.30;;;14.20;99.90;;;;;;7390924;19;20488;-84
2022/09/11 00:05:51;;;;;;;78.20;46.90;;;14.20;99.90;;;;;;7394358;19;20433;-84
2022/09/11 00:08:20;;;;;;;69.97;45.95;;;14.20;99.90;;;;;;7394699;19;20015;-84
2022/09/11 00:10:47;;;;;;;70.05;43.45;;;14.20;99.90;;;;;;7399581;19;20007;-84
2022/09/11 00:13:18;;;;;;;52.53;36.30;;;14.30;99.90;;;;;;7400466;19;20023;-84
2022/09/11 00:15:44;;;;;;;46.17;33.65;;;14.20;99.90;;;;;;7403421;19;20119;-84
2022/09/11 00:18:12;;;;;;;109.85;49.03;;;14.30;99.90;;;;;;7402274;19;20018;-84
2022/09/11 00:20:38;;;;;;;86.70;46.53;;;14.30;99.90;;;;;;7401658;19;20484;-84
2022/09/11 00:23:05;;;;;;;87.75;47.80;;;14.30;99.90;;;;;;7401800;19;20021;-84
2022/09/11 00:25:35;;;;;;;77.38;46.80;;;14.30;99.90;;;;;;7399165;19;20011;-84
2022/09/11 00:28:01;;;;;;;69.15;43.35;;;14.40;99.90;;;;;;7397608;19;20487;-84
2022/09/11 00:30:30;;;;;;;84.28;49.65;;;14.40;99.90;;;;;;7399158;19;20501;-84
2022/09/11 00:32:56;;;;;;;86.43;50.88;;;14.40;99.90;;;;;;7397243;19;20052;-84
2022/09/11 00:35:23;;;;;;;74.93;46.97;;;14.50;99.90;;;;;;7399283;19;20468;-84
2022/09/11 00:37:49;;;;;;;72.45;46.83;;;14.50;99.90;;;;;;7398613;19;20097;-84
2022/09/11 00:40:17;;;;;;;73.10;44.85;;;14.60;99.90;;;;;;7400249;19;20006;-84
2022/09/11 00:42:43;;;;;;;82.15;51.63;;;14.60;99.90;;;;;;7398580;19;20031;-84
2022/09/11 00:45:21;;;;;;;65.25;43.55;;;14.60;99.90;;;;;;7396154;19;20587;-84
2022/09/11 00:47:49;;;;;;;49.90;37.53;;;14.60;99.90;;;;;;7396899;19;20031;-84
2022/09/11 00:50:18;;;;;;;55.30;38.92;;;14.60;99.90;;;;;;7398074;19;20010;-84
2022/09/11 00:53:07;;;;;;;55.08;39.65;;;14.50;99.90;;;;;;7398678;19;20484;-83
2022/09/11 00:55:36;;;;;;;129.75;46.63;;;14.50;99.90;;;;;;7398215;19;20045;-84
2022/09/11 00:58:10;;;;;;;64.00;41.90;;;14.50;99.90;;;;;;7401017;19;20014;-84
2022/09/11 01:00:38;;;;;;;59.60;40.35;;;14.50;99.90;;;;;;7398023;19;20090;-83
2022/09/11 01:03:04;;;;;;;88.00;47.97;;;14.40;99.90;;;;;;7398271;19;20043;-84
2022/09/11 01:05:33;;;;;;;68.03;44.50;;;14.40;99.90;;;;;;7398268;19;20013;-84
2022/09/11 01:08:02;;;;;;;96.30;48.08;;;14.40;99.90;;;;;;7397674;19;20021;-84
2022/09/11 01:10:59;;;;;;;84.72;47.08;;;14.40;99.90;;;;;;7400432;19;20011;-84
2022/09/11 01:13:37;;;;;;;83.72;47.17;;;14.30;99.90;;;;;;7401040;19;20015;-84
2022/09/11 01:16:24;;;;;;;79.53;47.17;;;14.40;99.90;;;;;;7401003;19;20014;-84
2022/09/11 01:19:17;;;;;;;81.38;47.65;;;14.40;99.90;;;;;;7399983;19;20085;-84
2022/09/11 01:21:51;;;;;;;109.93;53.20;;;14.40;99.90;;;;;;7397301;19;20121;-84
2022/09/11 01:24:51;;;;;;;75.00;47.92;;;14.40;99.90;;;;;;7396457;19;20011;-84
2022/09/11 01:27:36;;;;;;;81.60;49.17;;;14.50;99.90;;;;;;7395737;19;20484;-84
2022/09/11 01:30:17;;;;;;;70.97;46.25;;;14.50;99.90;;;;;;7397886;19;20022;-83
2022/09/11 01:32:58;;;;;;;72.32;46.63;;;14.50;99.90;;;;;;7397230;19;20014;-84
2022/09/11 01:35:28;;;;;;;88.50;49.83;;;14.40;99.90;;;;;;7395608;19;20081;-84
2022/09/11 01:38:04;;;;;;;76.40;47.95;;;14.50;99.90;;;;;;7395245;19;20007;-84
2022/09/11 01:40:41;;;;;;;101.82;52.30;;;14.50;99.90;;;;;;7396974;19;20015;-84
2022/09/11 01:43:12;;;;;;;90.93;51.03;;;14.50;99.90;;;;;;7399755;19;20039;-84
2022/09/11 01:45:42;;;;;;;87.80;50.13;;;14.50;99.90;;;;;;7394349;19;20104;-84
2022/09/11 01:48:09;;;;;;;70.50;45.60;;;14.50;99.90;;;;;;7398909;19;20036;-84
2022/09/11 01:50:40;;;;;;;83.10;48.28;;;14.50;99.90;;;;;;7396615;19;20488;-84
2022/09/11 01:53:08;;;;;;;72.72;46.78;;;14.50;99.90;;;;;;7396286;19;20010;-84
2022/09/11 01:55:47;;;;;;;78.25;47.38;;;14.50;99.90;;;;;;7396258;19;20002;-84
2022/09/11 01:58:35;;;;;;;87.00;48.88;;;14.50;99.90;;;;;;7396250;19;20468;-84
2022/09/11 02:01:12;;;;;;;70.28;46.80;;;14.50;99.90;;;;;;7394142;19;20536;-84
2022/09/11 02:03:52;;;;;;;69.88;45.22;;;14.50;99.90;;;;;;7395220;19;20049;-84
2022/09/11 02:06:30;;;;;;;69.70;44.95;;;14.50;99.90;;;;;;7396240;19;20010;-84
2022/09/11 02:09:01;;;;;;;77.20;46.90;;;14.50;99.90;;;;;;7396017;19;20350;-84
2022/09/11 02:11:33;;;;;;;75.32;45.97;;;14.50;99.90;;;;;;7396209;19;20010;-84
2022/09/11 02:14:20;;;;;;;86.40;48.67;;;14.50;99.90;;;;;;7398547;19;20011;-83
2022/09/11 02:16:50;;;;;;;76.05;46.28;;;14.60;99.90;;;;;;7395301;19;20075;-83
2022/09/11 02:19:19;;;;;;;75.78;46.53;;;14.50;99.90;;;;;;7393840;19;20379;-84
2022/09/11 02:21:52;;;;;;;68.55;45.70;;;14.50;99.90;;;;;;7397407;19;20046;-83
2022/09/11 02:24:20;;;;;;;72.47;45.33;;;14.50;99.90;;;;;;7392527;19;20018;-83
2022/09/11 02:26:51;;;;;;;80.97;47.58;;;14.50;99.90;;;;;;7395385;19;20011;-84
2022/09/11 02:29:17;;;;;;;62.70;43.40;;;14.50;99.90;;;;;;7393804;19;20015;-84
2022/09/11 02:31:44;;;;;;;74.82;46.92;;;14.50;99.90;;;;;;7392629;19;20393;-84
2022/09/11 02:34:11;;;;;;;71.53;46.45;;;14.50;99.90;;;;;;7393305;19;20041;-84
2022/09/11 02:36:53;;;;;;;66.60;43.75;;;14.50;99.90;;;;;;7395082;19;20370;-84
2022/09/11 02:39:44;;;;;;;74.80;47.05;;;14.50;99.90;;;;;;7398974;19;20425;-84
2022/09/11 02:42:45;;;;;;;71.50;45.05;;;14.50;99.90;;;;;;7399276;19;20010;-84
2022/09/11 02:45:27;;;;;;;76.10;44.20;;;14.50;99.90;;;;;;7393495;19;20021;-83
2022/09/11 02:47:59;;;;;;;77.22;46.08;;;14.50;99.90;;;;;;7398649;19;20512;-84
2022/09/11 02:50:44;;;;;;;67.47;45.00;;;14.50;99.90;;;;;;7394537;19;20011;-84
2022/09/11 02:53:20;;;;;;;64.45;43.13;;;14.60;99.90;;;;;;7394486;19;20010;-84
2022/09/11 02:56:02;;;;;;;59.60;41.25;;;14.60;99.90;;;;;;7395088;19;20031;-84
2022/09/11 02:58:39;;;;;;;65.80;45.35;;;14.50;99.90;;;;;;7398421;19;20489;-84
2022/09/11 03:01:07;;;;;;;73.70;44.40;;;14.50;99.90;;;;;;7393982;19;20015;-83
2022/09/11 03:03:44;;;;;;;58.63;41.92;;;14.40;99.90;;;;;;7393063;19;20104;-84
2022/09/11 03:06:19;;;;;;;57.60;39.50;;;14.40;99.90;;;;;;7393928;19;20018;-84
2022/09/11 03:08:45;;;;;;;58.22;41.78;;;14.40;99.90;;;;;;7393760;19;20011;-84
2022/09/11 03:11:14;;;;;;;69.80;43.05;;;14.30;99.90;;;;;;7394082;19;20059;-83
2022/09/11 03:13:40;;;;;;;56.95;39.50;;;14.30;99.90;;;;;;7397629;19;20015;-84
2022/09/11 03:16:08;;;;;;;45.80;35.10;;;14.30;99.90;;;;;;7393458;19;20018;-84
2022/09/11 03:18:34;;;;;;;67.95;42.85;;;14.30;99.90;;;;;;7393208;19;20018;-84
2022/09/11 03:21:00;;;;;;;55.63;39.10;;;14.20;99.90;;;;;;7391706;19;20467;-83
2022/09/11 03:23:27;;;;;;;62.63;40.65;;;14.30;99.90;;;;;;7393135;19;20010;-84
2022/09/11 03:25:53;;;;;;;64.90;43.67;;;14.30;99.90;;;;;;7393355;19;20018;-83
2022/09/11 03:28:21;;;;;;;58.72;40.05;;;14.30;99.90;;;;;;7391972;19;20057;-84
2022/09/11 03:30:51;;;;;;;70.47;42.45;;;14.30;99.90;;;;;;7397792;19;20014;-84
2022/09/11 03:33:17;;;;;;;49.80;35.67;;;14.30;99.90;;;;;;7391866;19;20058;-84
2022/09/11 03:35:43;;;;;;;47.20;32.72;;;14.20;99.90;;;;;;7394096;19;20011;-84
2022/09/11 03:38:10;;;;;;;51.58;36.83;;;14.10;99.90;;;;;;7393260;19;20015;-83
2022/09/11 03:40:37;;;;;;;43.58;33.08;;;14.10;99.90;;;;;;7395207;19;20003;-84
2022/09/11 03:43:03;;;;;;;43.92;31.58;;;14.00;99.90;;;;;;7388707;19;20043;-84
2022/09/11 03:45:32;;;;;;;39.65;30.70;;;14.00;99.90;;;;;;7390004;19;20043;-84
2022/09/11 03:47:58;;;;;;;48.85;33.97;;;13.90;99.90;;;;;;7396493;19;20015;-84
2022/09/11 03:50:23;;;;;;;50.38;35.15;;;13.90;99.90;;;;;;7392718;19;20062;-83
2022/09/11 03:52:49;;;;;;;58.85;37.42;;;13.80;99.90;;;;;;7392827;19;20006;-83
2022/09/11 03:55:15;;;;;;;47.72;34.22;;;13.70;99.90;;;;;;7392596;19;20015;-83
2022/09/11 03:57:41;;;;;;;43.10;32.45;;;13.70;99.90;;;;;;7393825;19;20030;-83
2022/09/11 04:00:08;;;;;;;45.17;33.67;;;13.70;99.90;;;;;;7394845;19;20010;-84
2022/09/11 04:02:35;;;;;;;43.17;32.75;;;13.70;99.90;;;;;;7391134;19;20092;-84
2022/09/11 04:05:02;;;;;;;42.95;31.95;;;13.60;99.90;;;;;;7395449;19;20007;-84
2022/09/11 04:07:30;;;;;;;42.28;31.80;;;13.60;99.90;;;;;;7392888;19;20011;-83
2022/09/11 04:09:57;;;;;;;39.47;30.77;;;13.60;99.90;;;;;;7391105;19;20014;-84
2022/09/11 04:12:23;;;;;;;39.55;30.67;;;13.50;99.90;;;;;;7393145;19;20041;-83
2022/09/11 04:14:49;;;;;;;37.97;29.75;;;13.50;99.90;;;;;;7390490;19;20189;-83
2022/09/11 04:17:16;;;;;;;40.88;30.02;;;13.50;99.90;;;;;;7391634;19;20054;-84
2022/09/11 04:19:41;;;;;;;45.65;32.08;;;13.50;99.90;;;;;;7393023;19;20010;-83
2022/09/11 04:22:07;;;;;;;41.13;30.67;;;13.50;99.90;;;;;;7396495;19;20045;-83
2022/09/11 04:24:34;;;;;;;41.97;31.90;;;13.50;99.90;;;;;;7390655;19;20372;-83
2022/09/11 04:26:59;;;;;;;34.90;30.08;;;13.50;99.90;;;;;;7395629;19;20085;-83
2022/09/11 04:29:27;;;;;;;36.72;30.00;;;13.50;99.90;;;;;;7397237;19;20015;-83
2022/09/11 04:31:54;;;;;;;36.67;28.95;;;13.50;99.90;;;;;;7392532;19;20010;-83
2022/09/11 04:34:20;;;;;;;33.92;27.60;;;13.50;99.90;;;;;;7390660;19;20014;-83
2022/09/11 04:36:46;;;;;;;33.72;28.52;;;13.50;99.90;;;;;;7391476;19;20021;-83
2022/09/11 04:39:12;;;;;;;44.17;32.03;;;13.50;99.90;;;;;;7395069;19;20080;-83
2022/09/11 04:41:38;;;;;;;45.92;33.65;;;13.50;99.90;;;;;;7390047;19;20017;-84
2022/09/11 04:44:04;;;;;;;41.33;31.77;;;13.50;99.90;;;;;;7390013;19;20018;-83
2022/09/11 04:46:30;;;;;;;58.03;35.50;;;13.40;99.90;;;;;;7387747;19;20475;-83
2022/09/11 04:49:01;;;;;;;74.22;34.28;;;13.40;99.90;;;;;;7389287;19;20018;-83
2022/09/11 04:51:29;;;;;;;56.60;36.95;;;13.50;99.90;;;;;;7391599;19;20019;-83
2022/09/11 04:53:58;;;;;;;42.15;33.10;;;13.50;99.90;;;;;;7392883;19;20031;-83
2022/09/11 04:56:29;;;;;;;63.08;38.80;;;13.40;99.90;;;;;;7398184;19;20033;-83
2022/09/11 04:58:58;;;;;;;52.75;35.70;;;13.30;99.90;;;;;;7400488;19;20011;-83
2022/09/11 05:01:26;;;;;;;68.50;43.13;;;13.30;99.90;;;;;;7396427;19;20357;-83
2022/09/11 05:03:52;;;;;;;44.08;31.08;;;13.30;99.90;;;;;;7395600;19;20011;-83
2022/09/11 05:06:18;;;;;;;49.03;34.90;;;13.20;99.90;;;;;;7397601;19;20014;-82
2022/09/11 05:08:45;;;;;;;43.10;31.13;;;13.20;99.90;;;;;;7397735;19;20476;-83
2022/09/11 05:11:14;;;;;;;42.38;31.27;;;13.20;99.90;;;;;;7398356;19;20018;-83
2022/09/11 05:13:41;;;;;;;46.58;32.35;;;13.20;99.90;;;;;;7401624;19;20018;-83
2022/09/11 05:16:11;;;;;;;40.92;31.67;;;13.20;99.90;;;;;;7397646;19;20015;-83
2022/09/11 05:18:38;;;;;;;38.05;30.30;;;13.20;99.90;;;;;;7397247;19;20019;-83
2022/09/11 05:21:13;;;;;;;36.92;28.67;;;13.20;99.90;;;;;;7395876;19;20010;-84
2022/09/11 05:23:40;;;;;;;40.30;28.48;;;13.30;99.90;;;;;;7397095;19;20027;-83
2022/09/11 05:26:12;;;;;;;80.57;34.30;;;13.30;99.90;;;;;;7397880;19;20017;-83
2022/09/11 05:28:38;;;;;;;64.25;33.05;;;13.30;99.90;;;;;;7398915;19;20496;-84
2022/09/11 05:31:10;;;;;;;111.00;40.75;;;13.30;99.90;;;;;;7397339;19;20014;-83
2022/09/11 05:33:36;;;;;;;168.25;45.50;;;13.30;99.90;;;;;;7396906;19;20029;-83
2022/09/11 05:36:04;;;;;;;311.02;58.47;;;13.40;99.90;;;;;;7395673;19;20010;-84
2022/09/11 05:38:32;;;;;;;489.30;72.82;;;13.40;99.90;;;;;;7396934;19;20024;-84
2022/09/11 05:40:58;;;;;;;438.58;67.95;;;13.50;99.90;;;;;;7396649;19;20051;-84
2022/09/11 05:43:25;;;;;;;533.63;73.38;;;13.60;99.90;;;;;;7394781;19;20022;-83
2022/09/11 05:45:56;;;;;;;248.23;50.80;;;13.60;99.90;;;;;;7395311;19;20074;-83
2022/09/11 05:48:22;;;;;;;188.43;44.13;;;13.60;99.90;;;;;;7397242;19;20085;-83
2022/09/11 05:50:58;;;;;;;135.32;38.30;;;13.60;99.90;;;;;;7396466;19;20010;-84
2022/09/11 05:53:25;;;;;;;226.20;46.40;;;13.50;99.90;;;;;;7396536;19;20011;-82
2022/09/11 05:55:51;;;;;;;111.13;37.45;;;13.50;99.90;;;;;;7396493;19;20020;-83
2022/09/11 05:58:17;;;;;;;131.98;37.00;;;13.50;99.90;;;;;;7396057;19;20013;-84
2022/09/11 06:00:47;;;;;;;122.22;37.45;;;13.60;99.90;;;;;;7396319;19;20030;-84
2022/09/11 06:03:18;;;;;;;110.93;34.63;;;13.60;99.90;;;;;;7397705;19;20856;-84
2022/09/11 06:05:44;;;;;;;73.30;28.00;;;13.60;99.90;;;;;;7397274;19;20479;-83
2022/09/11 06:08:10;;;;;;;83.20;29.05;;;13.50;99.90;;;;;;7395753;19;20031;-84
2022/09/11 06:10:45;;;;;;;113.30;36.15;;;13.40;99.90;;;;;;7395912;19;20011;-84
2022/09/11 06:13:11;;;;;;;193.15;39.17;;;13.40;99.90;;;;;;7395777;19;20006;-84
2022/09/11 06:15:44;;;;;;;149.30;35.72;;;13.40;99.90;;;;;;7395657;19;20007;-84
2022/09/11 06:18:10;;;;;;;111.65;32.20;;;13.40;99.90;;;;;;7395488;19;20030;-83
2022/09/11 06:20:36;;;;;;;88.10;31.50;;;13.40;99.90;;;;;;7399164;19;20393;-84
2022/09/11 06:23:02;;;;;;;57.15;29.92;;;13.40;99.90;;;;;;7394083;19;20019;-84
2022/09/11 06:25:27;;;;;;;52.35;27.25;;;13.50;99.90;;;;;;7391428;19;20701;-84
2022/09/11 06:27:56;;;;;;;67.28;32.35;;;13.50;99.90;;;;;;7394055;19;20022;-84
2022/09/11 06:30:22;;;;;;;58.33;32.10;;;13.60;99.90;;;;;;7395115;19;20010;-83
2022/09/11 06:32:48;;;;;;;62.97;31.30;;;13.70;99.90;;;;;;7395296;19;20014;-84
2022/09/11 06:35:14;;;;;;;195.70;46.50;;;13.80;99.90;;;;;;7397166;19;20505;-84
2022/09/11 06:37:40;;;;;;;123.30;38.03;;;13.80;99.90;;;;;;7396128;19;20014;-84
2022/09/11 06:40:06;;;;;;;110.55;36.50;;;14.00;99.90;;;;;;7394557;19;20023;-84
2022/09/11 06:42:32;;;;;;;93.95;38.45;;;14.10;99.90;;;;;;7394454;19;20031;-84
2022/09/11 06:44:58;;;;;;;275.23;50.15;;;14.20;99.90;;;;;;7393406;19;20019;-84
2022/09/11 06:47:24;;;;;;;388.00;54.38;;;14.30;99.90;;;;;;7394353;19;20015;-84
2022/09/11 06:49:50;;;;;;;457.75;68.50;;;14.40;99.90;;;;;;7395075;19;20042;-84
2022/09/11 06:52:16;;;;;;;205.63;45.40;;;14.50;99.90;;;;;;7394301;19;20027;-84
2022/09/11 06:54:41;;;;;;;256.08;48.05;;;14.60;99.90;;;;;;7398396;19;20023;-84
2022/09/11 06:57:07;;;;;;;397.00;55.85;;;14.70;99.90;;;;;;7394028;19;20487;-84
2022/09/11 06:59:33;;;;;;;370.92;55.78;;;14.80;99.90;;;;;;7393981;19;20014;-84
2022/09/11 07:01:59;;;;;;;220.98;49.75;;;14.90;99.90;;;;;;7392243;19;20022;-84
2022/09/11 07:04:25;;;;;;;244.32;51.75;;;15.10;99.90;;;;;;7397186;19;20017;-84
2022/09/11 07:06:51;;;;;;;215.13;48.53;;;15.20;99.90;;;;;;7395943;19;20006;-84
2022/09/11 07:09:17;;;;;;;300.88;53.50;;;15.30;99.90;;;;;;7393688;19;20014;-84
2022/09/11 07:11:45;;;;;;;314.90;54.42;;;15.40;99.90;;;;;;7395585;19;20508;-84
2022/09/11 07:14:11;;;;;;;210.23;45.92;;;15.60;99.90;;;;;;7392157;19;20018;-84
2022/09/11 07:16:37;;;;;;;538.28;71.10;;;15.80;99.90;;;;;;7392995;19;20025;-84
2022/09/11 07:19:04;;;;;;;371.30;57.03;;;15.90;99.90;;;;;;7393950;19;20042;-84
2022/09/11 07:21:30;;;;;;;133.35;36.20;;;16.00;99.90;;;;;;7391521;19;20017;-84
2022/09/11 07:23:58;;;;;;;79.07;37.55;;;16.10;99.90;;;;;;7393162;19;20025;-84
2022/09/11 07:26:26;;;;;;;71.10;34.42;;;16.20;99.90;;;;;;7393747;19;20010;-84
2022/09/11 07:28:54;;;;;;;87.40;33.15;;;16.40;99.90;;;;;;7397923;19;20013;-84
2022/09/11 07:31:34;;;;;;;66.15;31.50;;;16.40;99.90;;;;;;7394181;19;20020;-84
2022/09/11 07:34:01;;;;;;;112.85;36.25;;;16.50;99.90;;;;;;7396797;19;20011;-84
2022/09/11 07:36:30;;;;;;;71.93;33.35;;;16.60;99.90;;;;;;7393817;19;20020;-84
2022/09/11 07:38:57;;;;;;;48.92;30.83;;;16.60;99.90;;;;;;7394335;19;20010;-85
2022/09/11 07:41:25;;;;;;;85.00;35.78;;;16.70;99.90;;;;;;7395399;19;20483;-85
2022/09/11 07:43:56;;;;;;;31.38;26.65;;;17.00;99.90;;;;;;7395594;19;20484;-84
2022/09/11 07:46:24;;;;;;;34.10;29.15;;;17.50;99.90;;;;;;7391889;19;20373;-85
2022/09/11 07:48:49;;;;;;;38.67;27.95;;;18.00;99.90;;;;;;7394678;19;20015;-84
2022/09/11 07:51:17;;;;;;;34.28;27.33;;;18.30;99.90;;;;;;7398432;19;20133;-84
2022/09/11 07:53:45;;;;;;;28.08;25.10;;;18.40;99.90;;;;;;7394794;19;20006;-84
2022/09/11 07:56:15;;;;;;;25.83;23.30;;;18.70;99.90;;;;;;7393640;19;20021;-84
2022/09/11 07:58:42;;;;;;;29.00;23.88;;;19.10;99.90;;;;;;7393738;19;20034;-85
2022/09/11 08:01:14;;;;;;;22.30;20.10;;;19.00;99.90;;;;;;7393351;19;20025;-85
2022/09/11 08:03:41;;;;;;;22.77;20.73;;;19.00;99.90;;;;;;7395397;19;20022;-84
2022/09/11 08:06:10;;;;;;;22.80;20.40;;;18.80;99.90;;;;;;7393820;19;20501;-85
2022/09/11 08:08:36;;;;;;;17.75;16.08;;;18.80;99.90;;;;;;7391206;19;20035;-84
2022/09/11 08:11:06;;;;;;;13.85;12.45;;;19.40;99.90;;;;;;7394733;19;20020;-84
2022/09/11 08:13:33;;;;;;;18.90;17.13;;;19.50;99.90;;;;;;7392173;19;20405;-85
2022/09/11 08:15:59;;;;;;;19.48;17.58;;;19.30;99.90;;;;;;7391976;19;20018;-84
2022/09/11 08:18:25;;;;;;;21.25;19.10;;;19.20;99.90;;;;;;7391433;19;20011;-85
2022/09/11 08:20:53;;;;;;;19.92;18.02;;;19.10;99.90;;;;;;7390732;19;20496;-83
2022/09/11 08:23:20;;;;;;;20.15;18.15;;;19.00;99.90;;;;;;7390243;19;20027;-85
2022/09/11 08:25:46;;;;;;;18.63;16.83;;;18.90;99.90;;;;;;7390526;19;20018;-85
2022/09/11 08:28:12;;;;;;;16.73;15.15;;;18.70;99.90;;;;;;7389822;19;20007;-85
2022/09/11 08:30:38;;;;;;;7.05;6.38;;;18.60;99.90;;;;;;7398842;19;20027;-85
2022/09/11 08:33:06;;;;;;;7.15;5.72;;;18.70;99.90;;;;;;7400323;19;20011;-84
2022/09/11 08:35:35;;;;;;;12.00;10.85;;;18.80;99.90;;;;;;7400530;19;20025;-85
2022/09/11 08:38:02;;;;;;;13.80;12.48;;;19.00;99.90;;;;;;7397341;19;20032;-85
2022/09/11 08:40:36;;;;;;;16.92;15.27;;;19.10;99.90;;;;;;7398803;19;20078;-85
2022/09/11 08:43:03;;;;;;;16.70;15.00;;;19.10;99.90;;;;;;7397157;19;20094;-84
2022/09/11 08:45:34;;;;;;;17.65;15.95;;;19.00;99.90;;;;;;7396018;19;20011;-85
2022/09/11 08:48:00;;;;;;;15.82;14.20;;;18.90;99.90;;;;;;7398359;19;20366;-85
2022/09/11 08:50:38;;;;;;;13.80;12.50;;;19.00;99.90;;;;;;7400973;19;20023;-85
2022/09/11 08:53:06;;;;;;;14.05;11.75;;;19.10;99.90;;;;;;7401360;19;20021;-85
2022/09/11 08:55:38;;;;;;;11.05;9.45;;;19.20;99.90;;;;;;7397121;19;20018;-85
2022/09/11 08:58:37;;;;;;;14.40;12.88;;;19.10;99.90;;;;;;7398371;19;20495;-85
2022/09/11 09:01:22;;;;;;;15.02;13.43;;;19.10;99.90;;;;;;7397504;19;20041;-85
2022/09/11 09:04:34;;;;;;;14.85;13.25;;;19.30;99.90;;;;;;7400353;19;20022;-85
2022/09/11 09:07:19;;;;;;;15.18;13.57;;;19.30;99.90;;;;;;7395304;19;20021;-84
2022/09/11 09:10:15;;;;;;;6.18;5.57;;;19.50;99.90;;;;;;7399575;19;20014;-85
2022/09/11 09:13:01;;;;;;;15.10;13.52;;;19.50;99.90;;;;;;7398001;19;20074;-84
2022/09/11 09:15:41;;;;;;;13.98;12.63;;;19.80;99.90;;;;;;7397575;19;20006;-85
2022/09/11 09:18:19;;;;;;;14.98;13.35;;;20.00;99.90;;;;;;7397128;19;20007;-85
2022/09/11 09:21:10;;;;;;;15.88;14.35;;;20.10;99.90;;;;;;7397483;19;20007;-85
2022/09/11 09:23:45;;;;;;;5.95;5.35;;;20.10;99.90;;;;;;7397230;19;20326;-85
2022/09/11 09:26:17;;;;;;;16.25;14.57;;;20.20;99.90;;;;;;7397023;19;20010;-85
2022/09/11 09:28:46;;;;;;;15.63;13.45;;;20.40;99.90;;;;;;7397433;19;20080;-84
2022/09/11 09:31:16;;;;;;;13.95;12.45;;;20.70;99.90;;;;;;7399125;19;20031;-84
2022/09/11 09:33:57;;;;;;;13.85;12.25;;;20.50;99.90;;;;;;7395624;19;20373;-85
2022/09/11 09:36:38;;;;;;;11.00;9.88;;;20.40;99.90;;;;;;7397405;19;20019;-85
2022/09/11 09:39:13;;;;;;;10.38;8.07;;;20.50;99.90;;;;;;7395675;19;20479;-85
2022/09/11 09:41:49;;;;;;;11.00;9.85;;;20.80;99.90;;;;;;7392571;19;20018;-85
2022/09/11 09:44:36;;;;;;;10.63;6.63;;;21.10;99.90;;;;;;7399010;19;20014;-85
2022/09/11 09:47:03;;;;;;;8.35;6.50;;;21.20;99.90;;;;;;7396521;19;20090;-85
2022/09/11 09:49:32;;;;;;;8.75;5.45;;;21.20;99.90;;;;;;7396710;19;20006;-85
2022/09/11 09:52:04;;;;;;;9.27;7.28;;;21.40;99.90;;;;;;7398762;19;20017;-84
2022/09/11 09:54:32;;;;;;;8.02;6.88;;;21.50;99.90;;;;;;7396460;19;20014;-85
2022/09/11 09:57:05;;;;;;;8.75;5.68;;;21.60;99.90;;;;;;7395323;19;20021;-85
2022/09/11 09:59:40;;;;;;;5.90;4.10;;;21.60;99.90;;;;;;7394856;19;20018;-85
2022/09/11 10:02:06;;;;;;;7.53;4.50;;;21.70;99.90;;;;;;7400036;19;20472;-85
2022/09/11 10:04:32;;;;;;;8.13;4.90;;;21.60;99.90;;;;;;7399451;19;20564;-85
2022/09/11 10:07:10;;;;;;;6.53;4.45;;;21.60;99.90;;;;;;7396506;19;20034;-85
2022/09/11 10:09:45;;;;;;;7.35;5.40;;;21.30;99.90;;;;;;7397960;19;20054;-85
2022/09/11 10:12:19;;;;;;;9.85;6.28;;;21.00;99.90;;;;;;7396596;19;20018;-85
2022/09/11 10:14:53;;;;;;;7.85;6.75;;;20.80;99.90;;;;;;7395936;19;20018;-85
2022/09/11 10:17:37;;;;;;;7.13;4.95;;;20.90;99.90;;;;;;7396480;19;20496;-85
2022/09/11 10:20:18;;;;;;;5.65;3.78;;;20.90;99.90;;;;;;7395767;19;20010;-85
2022/09/11 10:22:45;;;;;;;5.43;3.15;;;21.10;99.90;;;;;;7393960;19;20014;-85
2022/09/11 10:25:14;;;;;;;5.95;3.25;;;21.30;99.90;;;;;;7393554;19;20019;-85
2022/09/11 10:28:18;;;;;;;3.80;1.90;;;21.30;99.90;;;;;;7395474;19;20378;-85
2022/09/11 10:31:02;;;;;;;5.07;2.38;;;21.50;99.90;;;;;;7393341;19;20087;-84
2022/09/11 10:33:37;;;;;;;4.68;2.28;;;21.80;99.90;;;;;;7395023;19;20015;-84
2022/09/11 10:36:07;;;;;;;4.32;1.98;;;21.80;99.90;;;;;;7400334;19;20066;-85
2022/09/11 10:38:47;;;;;;;3.72;2.05;;;21.90;99.90;;;;;;7393737;19;20485;-85
2022/09/11 10:41:13;;;;;;;4.80;2.50;;;21.90;99.90;;;;;;7393358;19;20081;-86
2022/09/11 10:43:51;;;;;;;3.45;1.63;;;22.10;99.90;;;;;;7394787;19;20041;-85
2022/09/11 10:46:31;;;;;;;4.47;1.88;;;22.30;99.90;;;;;;7393120;19;20457;-85
2022/09/11 10:49:05;;;;;;;4.65;2.30;;;22.40;99.90;;;;;;7394758;19;20021;-86
2022/09/11 10:51:34;;;;;;;3.38;1.50;;;22.50;99.90;;;;;;7394948;19;20011;-86
2022/09/11 10:54:12;;;;;;;5.07;2.25;;;22.70;99.90;;;;;;7394960;19;20014;-85
2022/09/11 10:56:44;;;;;;;7.00;2.22;;;22.90;99.90;;;;;;7394380;19;20010;-86
2022/09/11 10:59:18;;;;;;;5.75;3.35;;;23.20;99.90;;;;;;7394703;19;20010;-86
2022/09/11 11:01:43;;;;;;;3.60;2.35;;;23.20;99.90;;;;;;7393663;19;20561;-86
2022/09/11 11:04:11;;;;;;;5.43;3.03;;;23.10;99.90;;;;;;7398607;19;20011;-86
2022/09/11 11:07:05;;;;;;;3.03;1.85;;;22.90;99.90;;;;;;7397596;19;20021;-86
2022/09/11 11:09:40;;;;;;;7.65;3.53;;;22.80;99.90;;;;;;7397332;19;20027;-86
2022/09/11 11:12:08;;;;;;;5.97;3.90;;;22.80;99.90;;;;;;7396795;19;20014;-85
2022/09/11 11:14:55;;;;;;;5.40;2.92;;;22.70;99.90;;;;;;7400294;19;20438;-86
2022/09/11 11:18:01;;;;;;;5.03;2.30;;;22.80;99.90;;;;;;7393972;19;20010;-86
2022/09/11 11:20:50;;;;;;;3.65;2.20;;;22.80;99.90;;;;;;7394393;19;20058;-85
2022/09/11 11:23:25;;;;;;;3.35;1.58;;;22.80;99.90;;;;;;7393513;19;20007;-85
2022/09/11 11:26:13;;;;;;;1.98;1.17;;;22.70;99.90;;;;;;7396494;19;20022;-86
2022/09/11 11:29:32;;;;;;;3.92;1.90;;;22.50;99.90;;;;;;7395850;19;20109;-86
2022/09/11 11:32:13;;;;;;;3.25;2.10;;;22.60;99.90;;;;;;7391839;19;20014;-86
2022/09/11 11:35:00;;;;;;;4.30;1.95;;;22.70;99.90;;;;;;7393331;19;20372;-86
2022/09/11 11:38:02;;;;;;;3.15;1.60;;;22.80;99.90;;;;;;7393412;19;20006;-87
2022/09/11 11:40:35;;;;;;;2.40;1.02;;;22.80;99.90;;;;;;7391838;19;20026;-86
2022/09/11 11:43:10;;;;;;;3.08;1.70;;;23.10;99.90;;;;;;7396220;19;20010;-86
2022/09/11 11:45:54;;;;;;;3.65;1.45;;;23.10;99.90;;;;;;7390993;19;20006;-85
2022/09/11 11:48:35;;;;;;;2.55;1.13;;;23.30;99.90;;;;;;7392387;19;20089;-86
2022/09/11 11:51:06;;;;;;;1.73;1.00;;;23.40;99.90;;;;;;7393905;19;20034;-86
2022/09/11 11:53:39;;;;;;;1.60;1.10;;;23.50;99.90;;;;;;7391287;19;20025;-86
2022/09/11 11:56:39;;;;;;;4.40;1.30;;;23.50;99.90;;;;;;7392657;19;20039;-86
2022/09/11 11:59:30;;;;;;;3.20;1.17;;;23.30;99.90;;;;;;7392546;19;20017;-86
2022/09/11 12:02:04;;;;;;;3.15;1.40;;;23.00;99.90;;;;;;7392571;19;20078;-86
2022/09/11 12:05:00;;;;;;;2.10;1.27;;;22.70;99.90;;;;;;7400075;19;20537;-86
2022/09/11 12:07:30;;;;;;;2.33;1.00;;;22.30;99.90;;;;;;7399625;19;20018;-86
2022/09/11 12:09:58;;;;;;;3.28;1.10;;;22.10;99.90;;;;;;7400083;19;20392;-86
2022/09/11 12:12:28;;;;;;;3.75;0.98;;;21.90;99.90;;;;;;7400400;19;20081;-86
2022/09/11 12:15:01;;;;;;;3.30;1.20;;;21.80;99.90;;;;;;7399790;19;20031;-87
2022/09/11 12:17:27;;;;;;;;;;;21.80;99.90;;;;;;7402011;19;20007;-86
2022/09/11 12:20:30;;;;;;;2.00;1.20;;;21.80;99.90;;;;;;7397904;19;19915;-85
2022/09/11 12:22:57;;;;;;;3.17;1.77;;;21.70;99.90;;;;;;7398678;19;20362;-85
2022/09/11 12:25:29;;;;;;;4.28;1.92;;;21.50;99.90;;;;;;7395442;19;20100;-85
2022/09/11 12:28:24;;;;;;;2.72;1.80;;;21.40;99.90;;;;;;7403132;19;20525;-86
2022/09/11 12:30:57;;;;;;;4.15;1.88;;;21.20;99.90;;;;;;7399851;19;20049;-86
2022/09/11 12:33:42;;;;;;;2.95;2.10;;;21.10;99.90;;;;;;7400689;19;20045;-86
2022/09/11 12:36:18;;;;;;;4.05;2.50;;;20.90;99.90;;;;;;7397585;19;20086;-86
2022/09/11 12:39:01;;;;;;;2.47;2.22;;;20.80;99.90;;;;;;7398012;19;20010;-85
2022/09/11 12:41:29;;;;;;;3.58;2.30;;;20.80;99.90;;;;;;7399770;19;20011;-86
2022/09/11 12:43:55;;;;;;;5.75;2.40;;;20.70;99.90;;;;;;7399278;19;20018;-86
2022/09/11 12:46:26;;;;;;;3.88;2.40;;;20.70;99.90;;;;;;7397178;19;20003;-85
2022/09/11 12:48:57;;;;;;;3.58;2.30;;;20.70;99.90;;;;;;7398787;19;20014;-85
2022/09/11 12:51:36;;;;;;;5.45;2.35;;;20.60;99.90;;;;;;7402399;19;20050;-85
2022/09/11 12:54:12;;;;;;;4.32;1.65;;;20.50;99.90;;;;;;7399158;19;20015;-85
2022/09/11 12:57:05;;;;;;;2.47;1.20;;;20.60;99.90;;;;;;7398904;19;20473;-86